Terminal Aerodrome Forecast
Issued by NWS

Home | Current Version | Previous Version | Text Only | Print | Product List | Glossary Off
Versions: 1 2 3 4 5 6 7 8 9 10 11 12 13 14 15 16 17 18 19 20

000
FTUS43 KMPX 251628 AAA
TAFRNH
TAF AMD
KRNH 251628Z 2516/2612 22012KT P6SM BKN012 OVC030
     FM251900 23012G19KT P6SM OVC030
     FM260000 25009KT P6SM SCT015 OVC040
     FM260300 23006KT 5SM BR OVC015
     FM260600 VRB04KT 2SM BR OVC005=

USA.gov is the U.S. government's official web portal to all federal, state and local government web resources and services.